Time;durP1;ratioP1;P1;durP2;ratioP2;P2;SDS_P1;SDS_P2;PMS_P1;PMS_P2;Temp;Humidity;BMP_temperature;BMP_pressure;BME280_temperature;BME280_humidity;BME280_pressure;Samples;Min_cycle;Max_cycle;Signal;HPM_P1;HPM_P2
2024/04/14 04:02:19;;;;;;;0.57;0.57;;;13.50;99.90;;;;;;5378571;21;21367;-68
2024/04/14 04:04:45;;;;;;;2.37;0.40;;;13.40;99.90;;;;;;5224815;27;20510;-68
2024/04/14 04:07:13;;;;;;;1.03;0.70;;;13.30;99.90;;;;;;5230624;27;21109;-69
2024/04/14 04:09:39;;;;;;;0.40;0.40;;;13.30;99.90;;;;;;5229808;27;20264;-69
2024/04/14 04:12:08;;;;;;;0.40;0.40;;;13.20;99.90;;;;;;5227945;27;20615;-69
2024/04/14 04:14:34;;;;;;;0.43;0.43;;;13.10;99.90;;;;;;5236258;27;20240;-69
2024/04/14 04:17:02;;;;;;;0.97;0.97;;;13.10;99.90;;;;;;5232894;27;20545;-69
2024/04/14 04:19:31;;;;;;;0.50;0.50;;;13.00;99.90;;;;;;5229788;27;21132;-69
2024/04/14 04:21:59;;;;;;;1.30;0.60;;;13.00;99.90;;;;;;5237803;27;20570;-68
2024/04/14 04:24:25;;;;;;;0.50;0.50;;;12.90;99.90;;;;;;5224474;27;20481;-68
2024/04/14 04:26:53;;;;;;;0.90;0.83;;;12.90;99.90;;;;;;5217228;27;21094;-68
2024/04/14 04:29:19;;;;;;;1.23;0.70;;;12.80;99.90;;;;;;5219427;27;20317;-68
2024/04/14 04:31:47;;;;;;;0.53;0.40;;;12.70;99.90;;;;;;5234449;27;21405;-67
2024/04/14 04:34:13;;;;;;;0.67;0.67;;;12.70;99.90;;;;;;5215201;27;20245;-68
2024/04/14 04:36:48;;;;;;;0.50;0.50;;;12.60;99.90;;;;;;5213235;27;20536;-67
2024/04/14 04:39:14;;;;;;;0.70;0.70;;;12.60;99.90;;;;;;5221501;27;20275;-70
2024/04/14 04:41:43;;;;;;;3.97;1.77;;;12.50;99.90;;;;;;5219501;27;20588;-69
2024/04/14 04:44:10;;;;;;;0.90;0.90;;;12.50;99.90;;;;;;5234883;27;20608;-70
2024/04/14 04:46:39;;;;;;;1.03;0.67;;;12.40;99.90;;;;;;5234105;27;20480;-69
2024/04/14 04:49:05;;;;;;;3.03;1.00;;;12.50;99.90;;;;;;5231441;27;20468;-69
2024/04/14 04:51:33;;;;;;;1.67;0.50;;;12.40;99.90;;;;;;5236468;27;20540;-70
2024/04/14 04:54:02;;;;;;;0.40;0.40;;;12.40;99.90;;;;;;5238335;27;20283;-68
2024/04/14 04:56:30;;;;;;;1.70;0.80;;;12.30;99.90;;;;;;5237452;27;20557;-69
2024/04/14 04:58:56;;;;;;;3.73;0.77;;;12.30;99.90;;;;;;5235576;27;20488;-70
2024/04/14 05:01:24;;;;;;;0.70;0.70;;;12.30;99.90;;;;;;5234596;27;20604;-70
2024/04/14 05:03:50;;;;;;;0.53;0.53;;;12.20;99.90;;;;;;5235042;27;21239;-69
2024/04/14 05:06:19;;;;;;;3.43;0.80;;;12.30;99.90;;;;;;5238104;27;20467;-70
2024/04/14 05:08:46;;;;;;;0.50;0.50;;;12.20;99.90;;;;;;5233183;27;20480;-69
2024/04/14 05:11:17;;;;;;;2.87;0.70;;;12.20;99.90;;;;;;5237511;27;20298;-69
2024/04/14 05:13:43;;;;;;;3.40;1.20;;;12.20;99.90;;;;;;5236958;27;20573;-69
2024/04/14 05:16:12;;;;;;;1.70;0.80;;;12.20;99.90;;;;;;5236439;27;20540;-69
2024/04/14 05:18:38;;;;;;;1.70;0.80;;;12.20;99.90;;;;;;5232161;27;20742;-69
2024/04/14 05:21:07;;;;;;;1.13;0.90;;;12.20;99.90;;;;;;5234789;27;20600;-68
2024/04/14 05:23:33;;;;;;;2.10;0.57;;;12.20;99.90;;;;;;5233530;27;20236;-69
2024/04/14 05:26:02;;;;;;;1.70;0.50;;;12.30;99.90;;;;;;5235076;27;21089;-70
2024/04/14 05:28:30;;;;;;;0.77;0.70;;;12.30;99.90;;;;;;5235920;27;20408;-70
2024/04/14 05:30:59;;;;;;;1.07;0.70;;;12.30;99.90;;;;;;5226539;27;20488;-70
2024/04/14 05:33:24;;;;;;;0.87;0.87;;;12.40;99.90;;;;;;5235970;27;21029;-69
2024/04/14 05:35:57;;;;;;;1.27;0.80;;;12.40;99.90;;;;;;5234536;27;20532;-69
2024/04/14 05:38:23;;;;;;;4.50;0.77;;;12.40;99.90;;;;;;5234456;27;20242;-68
2024/04/14 05:40:51;;;;;;;0.60;0.60;;;12.50;99.90;;;;;;5222048;27;20540;-69
2024/04/14 05:43:17;;;;;;;1.60;0.70;;;12.50;99.90;;;;;;5231207;27;20875;-69
2024/04/14 05:45:48;;;;;;;2.27;0.90;;;12.50;99.90;;;;;;5231916;27;20479;-69
2024/04/14 05:48:14;;;;;;;0.53;0.47;;;12.50;99.90;;;;;;5233920;27;20244;-69
2024/04/14 05:50:42;;;;;;;0.50;0.50;;;12.40;99.90;;;;;;5233557;27;20543;-69
2024/04/14 05:53:08;;;;;;;1.73;1.63;;;12.40;99.90;;;;;;5235422;27;20244;-69
2024/04/14 05:55:36;;;;;;;7.13;1.30;;;12.20;99.90;;;;;;5234736;27;21053;-69
2024/04/14 05:58:02;;;;;;;1.03;1.03;;;12.20;99.90;;;;;;5231617;27;20766;-69
2024/04/14 06:00:31;;;;;;;3.63;2.43;;;12.20;99.90;;;;;;5232848;27;20479;-70
2024/04/14 06:02:59;;;;;;;2.30;0.70;;;12.30;99.90;;;;;;5233387;27;20495;-68
2024/04/14 06:05:28;;;;;;;6.13;0.57;;;12.30;99.90;;;;;;5230334;27;21053;-69
2024/04/14 06:07:54;;;;;;;4.03;1.20;;;12.30;99.90;;;;;;5233258;27;22748;-70
2024/04/14 06:10:23;;;;;;;6.17;0.90;;;12.20;99.90;;;;;;5236824;27;20480;-68
2024/04/14 06:12:49;;;;;;;3.20;1.07;;;12.10;99.90;;;;;;5231989;27;20473;-68
2024/04/14 06:15:17;;;;;;;3.00;0.63;;;12.10;99.90;;;;;;5238529;27;20866;-68
2024/04/14 06:17:43;;;;;;;0.80;0.80;;;12.10;99.90;;;;;;5236199;27;20248;-69
2024/04/14 06:20:14;;;;;;;5.00;1.00;;;12.10;99.90;;;;;;5233839;27;20603;-69
2024/04/14 06:22:40;;;;;;;0.93;0.60;;;12.30;99.90;;;;;;5233536;27;20274;-69
2024/04/14 06:25:08;;;;;;;3.50;1.00;;;12.40;99.90;;;;;;5232184;27;20531;-69
2024/04/14 06:27:34;;;;;;;2.00;0.87;;;12.40;99.90;;;;;;5232774;27;20244;-70
2024/04/14 06:30:02;;;;;;;1.60;0.47;;;12.50;99.90;;;;;;5234045;27;20599;-69
2024/04/14 06:32:28;;;;;;;0.90;0.90;;;12.40;99.90;;;;;;5228242;27;20335;-70
2024/04/14 06:34:56;;;;;;;1.07;0.73;;;12.40;99.90;;;;;;5234977;27;20543;-70
2024/04/14 06:37:25;;;;;;;1.33;0.87;;;12.40;99.90;;;;;;5228773;27;20279;-70
2024/04/14 06:39:54;;;;;;;3.17;0.70;;;12.40;99.90;;;;;;5229511;27;20646;-69
2024/04/14 06:42:19;;;;;;;0.60;0.60;;;12.50;99.90;;;;;;5236703;27;20491;-70
2024/04/14 06:44:48;;;;;;;2.73;0.70;;;12.50;99.90;;;;;;5236200;27;20544;-69
2024/04/14 06:47:13;;;;;;;1.87;1.10;;;12.50;99.90;;;;;;5233787;27;20339;-69
2024/04/14 06:49:42;;;;;;;1.20;1.20;;;12.50;99.90;;;;;;5235497;27;20471;-70
2024/04/14 06:52:08;;;;;;;0.97;0.70;;;12.50;99.90;;;;;;5233727;27;20252;-69
2024/04/14 06:54:39;;;;;;;2.63;0.83;;;12.50;99.90;;;;;;5238733;27;20896;-68
2024/04/14 06:57:05;;;;;;;11.80;0.97;;;12.50;99.90;;;;;;5236380;27;20525;-69
2024/04/14 06:59:34;;;;;;;0.87;0.87;;;12.50;99.90;;;;;;5235791;27;20796;-69
2024/04/14 07:02:00;;;;;;;6.23;0.87;;;12.40;99.90;;;;;;5226746;27;20248;-69
2024/04/14 07:04:28;;;;;;;1.07;0.60;;;12.60;99.90;;;;;;5233967;27;20484;-70
2024/04/14 07:06:54;;;;;;;2.43;1.77;;;12.70;99.90;;;;;;5232200;27;20489;-70
2024/04/14 07:09:22;;;;;;;0.83;0.80;;;12.80;99.90;;;;;;5236193;27;20520;-70
2024/04/14 07:11:51;;;;;;;1.27;0.87;;;12.90;99.90;;;;;;5238996;27;20335;-70
2024/04/14 07:14:20;;;;;;;5.10;1.07;;;13.10;99.90;;;;;;5243321;27;20479;-69
2024/04/14 07:16:46;;;;;;;0.60;0.60;;;13.20;99.90;;;;;;5237238;27;20510;-69
2024/04/14 07:19:14;;;;;;;1.23;0.90;;;13.50;99.90;;;;;;5233421;27;20934;-68
2024/04/14 07:21:40;;;;;;;1.70;0.63;;;13.60;99.90;;;;;;5233284;27;20548;-70
2024/04/14 07:24:08;;;;;;;2.83;1.00;;;13.70;99.90;;;;;;5230994;27;20484;-69
2024/04/14 07:26:34;;;;;;;1.13;0.97;;;13.80;99.90;;;;;;5228230;27;20279;-68
2024/04/14 07:29:05;;;;;;;1.13;0.90;;;13.90;99.90;;;;;;5233684;27;20472;-68
2024/04/14 07:31:31;;;;;;;1.83;0.73;;;13.90;99.90;;;;;;5237216;27;20264;-68
2024/04/14 07:34:02;;;;;;;3.43;1.20;;;13.90;99.90;;;;;;5236498;27;20592;-68
2024/04/14 07:36:28;;;;;;;0.93;0.63;;;14.00;99.90;;;;;;5233427;27;20278;-68
2024/04/14 07:38:57;;;;;;;1.33;0.90;;;14.00;99.90;;;;;;5234125;27;20471;-69
2024/04/14 07:41:23;;;;;;;3.90;0.90;;;14.10;99.90;;;;;;5237496;27;20536;-68
2024/04/14 07:43:52;;;;;;;1.60;0.77;;;14.20;99.90;;;;;;5232192;27;20827;-67
2024/04/14 07:46:22;;;;;;;0.97;0.90;;;14.20;99.90;;;;;;5230610;27;20647;-68
2024/04/14 07:48:50;;;;;;;2.63;0.60;;;14.20;99.90;;;;;;5229985;27;20532;-68
2024/04/14 07:51:16;;;;;;;3.00;1.00;;;14.30;99.90;;;;;;5227282;27;20535;-67
2024/04/14 07:53:44;;;;;;;1.10;0.70;;;14.20;99.90;;;;;;5238078;27;20480;-69
2024/04/14 07:56:10;;;;;;;0.77;0.77;;;14.20;99.90;;;;;;5230528;27;20248;-69
2024/04/14 07:58:38;;;;;;;0.80;0.80;;;14.10;99.90;;;;;;5226695;27;20540;-69
2024/04/14 08:01:04;;;;;;;3.10;0.70;;;14.00;99.90;;;;;;5236115;27;20299;-68
2024/04/14 08:03:35;;;;;;;0.70;0.60;;;13.90;99.90;;;;;;5236709;27;20563;-69
2024/04/14 08:06:01;;;;;;;0.60;0.47;;;13.90;99.90;;;;;;5236518;27;20479;-69
2024/04/14 08:08:29;;;;;;;1.67;0.60;;;13.90;99.90;;;;;;5235400;27;21460;-71
2024/04/14 08:10:55;;;;;;;2.20;0.40;;;13.80;99.90;;;;;;5234737;27;20275;-71
2024/04/14 08:13:24;;;;;;;5.87;0.70;;;13.80;99.90;;;;;;5237820;27;20785;-71
2024/04/14 08:15:49;;;;;;;1.37;0.70;;;13.80;99.90;;;;;;5236679;27;20240;-71
2024/04/14 08:18:22;;;;;;;0.73;0.73;;;13.90;99.90;;;;;;5236897;27;20990;-71
2024/04/14 08:20:58;;;;;;;1.77;0.77;;;13.80;99.90;;;;;;5236457;27;20472;-71
2024/04/14 08:23:27;;;;;;;2.97;0.80;;;13.80;99.90;;;;;;5238136;27;20597;-71
2024/04/14 08:25:53;;;;;;;3.20;0.80;;;13.80;99.90;;;;;;5235520;27;21085;-70
2024/04/14 08:28:21;;;;;;;0.60;0.60;;;13.80;99.90;;;;;;5237739;27;20583;-70
2024/04/14 08:30:47;;;;;;;0.87;0.60;;;13.80;99.90;;;;;;5236067;27;20252;-71
2024/04/14 08:33:16;;;;;;;1.23;0.60;;;13.80;99.90;;;;;;5233848;27;20573;-70
2024/04/14 08:35:41;;;;;;;0.90;0.40;;;13.80;99.90;;;;;;5230802;27;20288;-70
2024/04/14 08:38:13;;;;;;;2.63;0.80;;;13.90;99.90;;;;;;5237435;27;20600;-69
2024/04/14 08:40:39;;;;;;;0.43;0.43;;;13.80;99.90;;;;;;5232825;27;20539;-69
2024/04/14 08:43:07;;;;;;;1.63;0.50;;;13.80;99.90;;;;;;5229975;27;20476;-70
2024/04/14 08:45:34;;;;;;;1.27;1.03;;;13.80;99.90;;;;;;5236346;27;20476;-69
2024/04/14 08:48:04;;;;;;;0.93;0.60;;;13.80;99.90;;;;;;5236612;27;20613;-69
2024/04/14 08:50:30;;;;;;;0.57;0.57;;;13.80;99.90;;;;;;5233272;27;20479;-69
2024/04/14 08:52:58;;;;;;;1.50;0.50;;;13.80;99.90;;;;;;5236883;27;20544;-69
2024/04/14 08:55:27;;;;;;;4.93;0.53;;;13.90;99.90;;;;;;5233657;27;20561;-69
2024/04/14 08:57:56;;;;;;;0.93;0.40;;;14.00;99.90;;;;;;5235644;27;20472;-72
2024/04/14 09:00:23;;;;;;;0.60;0.60;;;14.00;99.90;;;;;;5233232;27;20528;-71
2024/04/14 09:02:52;;;;;;;2.53;0.60;;;14.00;99.90;;;;;;5235621;27;20591;-70
2024/04/14 09:05:20;;;;;;;1.43;0.70;;;14.00;99.90;;;;;;5227864;27;21022;-70
2024/04/14 09:07:56;;;;;;;1.33;0.83;;;14.00;99.90;;;;;;5232309;27;20552;-70
2024/04/14 09:10:22;;;;;;;3.30;1.83;;;14.00;99.90;;;;;;5226392;27;20488;-70
2024/04/14 09:12:53;;;;;;;0.90;0.90;;;13.90;99.90;;;;;;5224088;27;20484;-68
2024/04/14 09:15:19;;;;;;;0.50;0.40;;;13.90;99.90;;;;;;5229965;27;21002;-68
2024/04/14 09:17:48;;;;;;;3.40;0.60;;;13.80;99.90;;;;;;5228965;27;21080;-68
2024/04/14 09:20:14;;;;;;;1.57;0.47;;;13.70;99.90;;;;;;5235900;27;20579;-68
2024/04/14 09:22:42;;;;;;;0.77;0.50;;;13.80;99.90;;;;;;5228769;27;20567;-68
2024/04/14 09:25:08;;;;;;;7.07;0.90;;;13.80;99.90;;;;;;5231857;27;20296;-68
2024/04/14 09:27:36;;;;;;;1.40;0.30;;;14.00;99.90;;;;;;5231667;27;20595;-67
2024/04/14 09:30:13;;;;;;;2.40;1.03;;;14.10;99.90;;;;;;5229656;27;20524;-68
2024/04/14 09:32:42;;;;;;;2.40;0.40;;;14.10;99.90;;;;;;5221403;27;20524;-68
2024/04/14 09:35:08;;;;;;;3.07;0.50;;;14.10;99.90;;;;;;5229570;27;20487;-69
2024/04/14 09:37:37;;;;;;;4.60;0.90;;;14.20;99.90;;;;;;5234444;27;20547;-69
2024/04/14 09:40:05;;;;;;;0.50;0.50;;;14.20;99.90;;;;;;5227891;27;20483;-69
2024/04/14 09:42:35;;;;;;;2.13;0.70;;;14.30;99.90;;;;;;5234106;27;20997;-69
2024/04/14 09:45:02;;;;;;;2.40;0.50;;;14.30;99.90;;;;;;5233797;27;20491;-68
2024/04/14 09:47:33;;;;;;;0.40;0.40;;;14.40;99.90;;;;;;5237213;27;20569;-70
2024/04/14 09:50:00;;;;;;;0.40;0.40;;;14.30;99.90;;;;;;5229228;27;20627;-70
2024/04/14 09:52:33;;;;;;;0.40;0.23;;;14.20;99.90;;;;;;5236320;27;20585;-69
2024/04/14 09:54:59;;;;;;;2.50;0.30;;;14.20;99.90;;;;;;5239226;27;20491;-70
2024/04/14 09:57:28;;;;;;;1.23;0.60;;;14.10;99.90;;;;;;5236676;27;20998;-69
2024/04/14 09:59:54;;;;;;;2.60;0.77;;;14.00;99.90;;;;;;5235816;27;21088;-70
2024/04/14 10:02:27;;;;;;;0.53;0.53;;;14.10;99.90;;;;;;5232928;27;20484;-69
2024/04/14 10:04:57;;;;;;;0.50;0.50;;;14.20;99.90;;;;;;5236779;27;20487;-69
2024/04/14 10:07:26;;;;;;;2.33;0.80;;;14.20;99.90;;;;;;5237903;27;20468;-69
2024/04/14 10:09:55;;;;;;;0.50;0.50;;;14.30;99.90;;;;;;5237409;27;20480;-70
2024/04/14 10:12:24;;;;;;;0.97;0.67;;;14.40;99.90;;;;;;5237578;27;20483;-69
2024/04/14 10:14:51;;;;;;;5.27;1.30;;;14.30;99.90;;;;;;5228468;27;20593;-68
2024/04/14 10:17:20;;;;;;;2.07;0.60;;;14.40;99.90;;;;;;5234853;27;20916;-68
2024/04/14 10:19:58;;;;;;;3.03;0.90;;;14.50;99.90;;;;;;5230605;27;20483;-68
2024/04/14 10:22:32;;;;;;;0.60;0.60;;;14.70;99.90;;;;;;5236334;27;20640;-69
2024/04/14 10:24:58;;;;;;;0.57;0.57;;;14.70;99.90;;;;;;5235494;27;20702;-69
2024/04/14 10:27:27;;;;;;;0.50;0.47;;;14.80;99.90;;;;;;5235224;27;20555;-69
2024/04/14 10:29:57;;;;;;;0.40;0.40;;;14.80;99.90;;;;;;5225294;27;20543;-69
2024/04/14 10:32:25;;;;;;;0.50;0.50;;;14.80;99.90;;;;;;5227592;27;21033;-70
2024/04/14 10:34:51;;;;;;;2.90;0.80;;;14.90;99.90;;;;;;5237057;27;20527;-69
2024/04/14 10:37:27;;;;;;;0.70;0.40;;;14.90;99.90;;;;;;5234800;27;20825;-69
2024/04/14 10:39:54;;;;;;;3.80;0.90;;;14.90;99.90;;;;;;5229746;27;20539;-69
2024/04/14 10:42:23;;;;;;;0.70;0.40;;;14.70;99.90;;;;;;5228512;27;20499;-69
2024/04/14 10:44:49;;;;;;;5.20;1.60;;;14.70;99.90;;;;;;5230994;27;20883;-69
2024/04/14 10:47:19;;;;;;;2.00;1.07;;;14.80;99.90;;;;;;5235284;27;21046;-69
2024/04/14 10:49:46;;;;;;;3.23;1.00;;;14.80;99.90;;;;;;5229891;27;20529;-69
2024/04/14 10:52:14;;;;;;;0.97;0.73;;;14.80;99.90;;;;;;5226498;27;20664;-70
2024/04/14 10:54:46;;;;;;;2.23;1.20;;;15.00;99.90;;;;;;5231873;27;23259;-70
2024/04/14 10:57:16;;;;;;;1.07;0.63;;;15.00;99.70;;;;;;5232418;27;20479;-70
2024/04/14 10:59:42;;;;;;;1.80;0.93;;;15.10;99.90;;;;;;5233297;27;21116;-70
2024/04/14 11:02:10;;;;;;;6.10;3.10;;;15.10;99.60;;;;;;5229998;27;20690;-69
2024/04/14 11:04:36;;;;;;;1.13;1.13;;;15.20;99.60;;;;;;5232005;27;20244;-69
2024/04/14 11:07:05;;;;;;;4.23;1.23;;;15.30;99.60;;;;;;5236857;27;20491;-70
2024/04/14 11:09:32;;;;;;;1.70;1.27;;;15.40;99.80;;;;;;5233448;27;21282;-69
2024/04/14 11:12:04;;;;;;;1.10;1.10;;;15.40;98.60;;;;;;5234362;27;20583;-70
2024/04/14 11:14:30;;;;;;;5.93;1.20;;;15.40;98.80;;;;;;5235239;27;20492;-70
2024/04/14 11:16:58;;;;;;;1.13;0.70;;;15.40;98.40;;;;;;5227490;27;20527;-69
2024/04/14 11:19:25;;;;;;;0.90;0.60;;;15.40;98.50;;;;;;5229615;27;20264;-70
2024/04/14 11:21:54;;;;;;;3.53;0.97;;;15.50;98.10;;;;;;5231235;27;20529;-69
2024/04/14 11:24:21;;;;;;;2.10;0.50;;;15.20;98.30;;;;;;5234301;27;20483;-69
2024/04/14 11:26:49;;;;;;;1.70;0.70;;;15.10;98.50;;;;;;5226100;27;20476;-70
2024/04/14 11:29:17;;;;;;;2.13;0.80;;;15.00;98.60;;;;;;5230901;27;20504;-70
2024/04/14 11:31:46;;;;;;;1.57;0.40;;;15.00;98.50;;;;;;5228644;27;20682;-69
2024/04/14 11:34:12;;;;;;;0.60;0.43;;;15.10;99.10;;;;;;5235261;27;20930;-70
2024/04/14 11:36:41;;;;;;;3.00;0.60;;;15.30;99.30;;;;;;5236164;27;20480;-69
2024/04/14 11:39:07;;;;;;;1.07;0.60;;;15.40;99.70;;;;;;5235142;27;20536;-69
2024/04/14 11:41:35;;;;;;;1.20;1.00;;;15.40;99.90;;;;;;5230123;27;20472;-70
2024/04/14 11:44:01;;;;;;;0.80;0.60;;;15.30;99.90;;;;;;5233558;27;20341;-70
2024/04/14 11:46:32;;;;;;;1.40;0.60;;;15.20;99.90;;;;;;5232406;27;20484;-69
2024/04/14 11:48:58;;;;;;;3.40;0.50;;;15.10;99.60;;;;;;5233590;27;20346;-69
2024/04/14 11:51:26;;;;;;;1.03;1.03;;;14.80;98.70;;;;;;5229229;27;20783;-70
2024/04/14 11:53:52;;;;;;;0.63;0.60;;;14.80;99.60;;;;;;5229950;27;20781;-69
2024/04/14 11:56:21;;;;;;;1.77;0.67;;;14.80;99.70;;;;;;5234324;27;20608;-70
2024/04/14 11:58:46;;;;;;;1.23;0.60;;;14.80;99.10;;;;;;5236679;27;20476;-69
2024/04/14 12:01:15;;;;;;;1.90;0.60;;;14.80;99.40;;;;;;5232822;27;20532;-69
2024/04/14 12:03:43;;;;;;;1.70;0.60;;;14.80;98.50;;;;;;5234521;27;20244;-69
2024/04/14 12:06:11;;;;;;;1.10;1.00;;;14.70;98.70;;;;;;5237448;27;20556;-69
2024/04/14 12:08:37;;;;;;;1.97;0.90;;;14.60;98.40;;;;;;5233129;27;20492;-70
2024/04/14 12:11:06;;;;;;;2.20;0.80;;;14.60;98.50;;;;;;5232903;27;20483;-69
2024/04/14 12:13:32;;;;;;;0.70;0.70;;;14.70;98.10;;;;;;5233081;27;20240;-70
2024/04/14 12:16:00;;;;;;;3.30;0.77;;;14.80;97.90;;;;;;5233614;27;20476;-69
2024/04/14 12:18:26;;;;;;;0.63;0.63;;;14.90;98.10;;;;;;5234416;27;20287;-69
2024/04/14 12:20:57;;;;;;;0.60;0.60;;;15.00;98.40;;;;;;5236465;27;20487;-69
2024/04/14 12:23:23;;;;;;;3.83;0.70;;;15.10;97.80;;;;;;5231266;27;20240;-69
2024/04/14 12:25:51;;;;;;;0.90;0.90;;;15.20;97.90;;;;;;5235285;27;20592;-70
2024/04/14 12:28:17;;;;;;;0.63;0.53;;;15.10;97.80;;;;;;5234961;27;20592;-70
2024/04/14 12:30:45;;;;;;;0.73;0.60;;;15.20;98.00;;;;;;5233138;27;20615;-69
2024/04/14 12:33:11;;;;;;;1.07;0.60;;;15.40;98.20;;;;;;5234290;27;20244;-69
2024/04/14 12:35:39;;;;;;;0.83;0.50;;;15.50;97.90;;;;;;5237138;27;20601;-70
2024/04/14 12:38:09;;;;;;;0.90;0.57;;;15.60;97.70;;;;;;5231671;27;20252;-69
2024/04/14 12:40:40;;;;;;;1.57;0.60;;;15.60;98.10;;;;;;5231030;27;20491;-70
2024/04/14 12:43:06;;;;;;;2.53;0.90;;;15.50;97.90;;;;;;5234016;27;20636;-69
2024/04/14 12:45:36;;;;;;;1.83;0.50;;;15.40;98.30;;;;;;5236297;27;20842;-69
2024/04/14 12:48:02;;;;;;;1.47;0.77;;;15.30;98.00;;;;;;5236325;27;20347;-69
2024/04/14 12:50:30;;;;;;;0.57;0.57;;;15.10;98.10;;;;;;5236582;27;20500;-70
2024/04/14 12:52:56;;;;;;;0.80;0.80;;;14.90;98.20;;;;;;5230156;27;20492;-71
2024/04/14 12:55:27;;;;;;;2.30;0.77;;;14.90;99.70;;;;;;5234194;27;20557;-71
2024/04/14 12:57:53;;;;;;;1.23;0.80;;;14.80;98.90;;;;;;5235722;27;20236;-71
2024/04/14 13:00:21;;;;;;;2.00;1.20;;;14.60;98.80;;;;;;5233763;27;20919;-70
2024/04/14 13:02:48;;;;;;;0.53;0.50;;;14.70;98.60;;;;;;5235316;27;20242;-70
2024/04/14 13:05:17;;;;;;;1.90;0.60;;;14.80;98.50;;;;;;5232771;27;20475;-70
2024/04/14 13:07:42;;;;;;;0.60;0.60;;;15.00;99.30;;;;;;5233119;27;20885;-70
2024/04/14 13:10:11;;;;;;;1.27;0.80;;;15.20;98.80;;;;;;5233494;27;20491;-71
2024/04/14 13:12:39;;;;;;;0.57;0.50;;;15.40;98.50;;;;;;5234316;27;20252;-71
2024/04/14 13:15:08;;;;;;;0.77;0.40;;;15.40;97.80;;;;;;5236184;27;20528;-71
2024/04/14 13:17:36;;;;;;;2.00;0.60;;;15.40;96.90;;;;;;5238353;27;20472;-71
2024/04/14 13:20:04;;;;;;;5.03;0.53;;;15.50;97.00;;;;;;5237050;27;20475;-73
2024/04/14 13:22:30;;;;;;;0.50;0.50;;;15.70;98.00;;;;;;5238231;27;20617;-70
2024/04/14 13:24:59;;;;;;;2.30;0.77;;;15.90;96.80;;;;;;5237786;27;20477;-70
2024/04/14 13:27:24;;;;;;;1.53;0.90;;;15.90;96.00;;;;;;5239349;27;21032;-70
2024/04/14 13:29:55;;;;;;;3.23;0.57;;;15.90;96.00;;;;;;5236896;27;20488;-70
2024/04/14 13:32:21;;;;;;;0.53;0.53;;;15.60;96.40;;;;;;5232120;27;20264;-70
2024/04/14 13:34:50;;;;;;;1.30;0.57;;;15.50;97.00;;;;;;5238568;27;21385;-70
2024/04/14 13:37:16;;;;;;;1.07;0.50;;;15.50;96.40;;;;;;5237860;27;20244;-70
2024/04/14 13:39:45;;;;;;;2.10;1.10;;;15.30;96.90;;;;;;5235937;27;20567;-69
2024/04/14 13:42:11;;;;;;;2.23;0.90;;;15.30;96.80;;;;;;5235858;27;20790;-69
2024/04/14 13:44:40;;;;;;;3.97;0.43;;;15.20;97.10;;;;;;5237007;27;20492;-69
2024/04/14 13:47:08;;;;;;;0.77;0.60;;;15.20;96.60;;;;;;5239679;27;20483;-69
2024/04/14 13:49:37;;;;;;;1.70;0.60;;;15.10;96.50;;;;;;5238239;27;20531;-70
2024/04/14 13:52:03;;;;;;;1.80;0.87;;;15.00;96.90;;;;;;5239098;27;20503;-70
2024/04/14 13:54:32;;;;;;;0.50;0.50;;;15.00;96.90;;;;;;5236263;27;20475;-70
2024/04/14 13:56:57;;;;;;;1.80;0.70;;;14.90;97.40;;;;;;5238981;27;20867;-69
2024/04/14 13:59:26;;;;;;;0.40;0.40;;;15.00;97.60;;;;;;5234047;27;20529;-70
2024/04/14 14:01:52;;;;;;;0.60;0.60;;;14.80;97.70;;;;;;5236157;27;20256;-69
2024/04/14 14:04:23;;;;;;;3.87;0.70;;;14.80;98.00;;;;;;5237706;27;20472;-69
2024/04/14 14:06:49;;;;;;;1.40;0.70;;;14.80;98.30;;;;;;5239723;27;20247;-70
2024/04/14 14:09:17;;;;;;;0.73;0.43;;;14.90;98.40;;;;;;5239401;27;20487;-70
2024/04/14 14:11:43;;;;;;;0.40;0.40;;;14.90;98.00;;;;;;5234940;27;20295;-70
2024/04/14 14:14:12;;;;;;;0.70;0.30;;;15.00;98.20;;;;;;5230682;27;20479;-70
2024/04/14 14:16:37;;;;;;;0.20;0.20;;;15.00;98.00;;;;;;5225079;27;20475;-70
2024/04/14 14:19:06;;;;;;;1.00;1.00;;;14.90;97.90;;;;;;5237553;27;20587;-71
2024/04/14 14:21:34;;;;;;;2.70;0.60;;;14.90;98.30;;;;;;5238388;27;20303;-72
2024/04/14 14:24:02;;;;;;;0.53;0.53;;;14.90;98.40;;;;;;5237837;27;20560;-70
2024/04/14 14:26:28;;;;;;;3.03;0.40;;;14.90;98.60;;;;;;5232097;27;20608;-71
2024/04/14 14:28:56;;;;;;;1.17;0.60;;;14.90;98.60;;;;;;5233278;27;20492;-71
2024/04/14 14:31:23;;;;;;;0.70;0.70;;;14.90;98.70;;;;;;5233258;27;20747;-71
2024/04/14 14:36:38;;;;;;;0.47;0.47;;;15.00;98.70;;;;;;5239485;27;20879;-70
2024/04/14 14:39:07;;;;;;;0.93;0.40;;;15.00;98.20;;;;;;5239169;27;20464;-70
2024/04/14 14:41:36;;;;;;;0.43;0.43;;;14.90;97.80;;;;;;5230466;27;20491;-71
2024/04/14 14:44:05;;;;;;;0.67;0.67;;;14.70;98.20;;;;;;5226110;27;20524;-70
2024/04/14 14:46:34;;;;;;;1.90;0.60;;;14.60;98.60;;;;;;5234564;27;20495;-70
2024/04/14 14:49:00;;;;;;;1.07;0.40;;;14.60;98.40;;;;;;5232959;27;20553;-70
2024/04/14 14:51:28;;;;;;;0.30;0.30;;;14.70;98.40;;;;;;5219305;27;20495;-69
2024/04/14 14:53:57;;;;;;;0.77;0.70;;;14.80;97.80;;;;;;5220849;27;20248;-69
2024/04/14 14:56:26;;;;;;;0.90;0.60;;;14.90;97.60;;;;;;5224292;27;20527;-70
2024/04/14 14:58:52;;;;;;;0.93;0.70;;;15.00;97.80;;;;;;5221839;27;20491;-70
2024/04/14 15:01:20;;;;;;;0.47;0.47;;;15.10;97.10;;;;;;5223421;27;20490;-69
2024/04/14 15:03:47;;;;;;;0.50;0.50;;;15.30;96.30;;;;;;5222179;27;20345;-70
2024/04/14 15:06:15;;;;;;;0.90;0.40;;;15.40;96.70;;;;;;5221083;27;20958;-69
2024/04/14 15:08:41;;;;;;;1.30;0.40;;;15.40;96.90;;;;;;5224053;27;20480;-70
2024/04/14 15:11:18;;;;;;;0.77;0.57;;;15.40;96.40;;;;;;5219050;27;20589;-70
2024/04/14 15:13:44;;;;;;;2.10;0.77;;;15.40;97.20;;;;;;5224234;27;21115;-70
2024/04/14 15:16:12;;;;;;;0.60;0.57;;;15.40;96.60;;;;;;5224779;27;21017;-70
2024/04/14 15:18:39;;;;;;;1.43;0.63;;;15.40;96.30;;;;;;5226187;27;20607;-71
2024/04/14 15:21:07;;;;;;;0.60;0.60;;;15.50;96.20;;;;;;5221080;27;20611;-71
2024/04/14 15:23:33;;;;;;;1.43;0.40;;;15.40;96.10;;;;;;5218463;27;21116;-71
2024/04/14 15:26:01;;;;;;;0.63;0.63;;;15.50;96.30;;;;;;5221023;27;20475;-71
2024/04/14 15:28:29;;;;;;;1.13;0.50;;;15.50;96.90;;;;;;5218284;27;20347;-70
2024/04/14 15:30:58;;;;;;;1.33;0.40;;;15.60;96.80;;;;;;5218866;27;21032;-70
2024/04/14 15:33:24;;;;;;;3.30;0.50;;;15.60;96.80;;;;;;5221513;27;20562;-70
2024/04/14 15:35:52;;;;;;;0.80;0.80;;;15.60;96.60;;;;;;5221769;27;20497;-69
2024/04/14 15:38:18;;;;;;;2.43;0.70;;;15.60;96.50;;;;;;5219427;27;20374;-69
2024/04/14 15:40:47;;;;;;;0.40;0.40;;;15.60;96.90;;;;;;5220251;27;20491;-69
2024/04/14 15:43:13;;;;;;;2.63;0.50;;;15.60;96.20;;;;;;5220981;27;20359;-70
2024/04/14 15:45:44;;;;;;;0.60;0.60;;;15.50;96.10;;;;;;5221198;27;20515;-70
2024/04/14 15:48:10;;;;;;;0.37;0.37;;;15.50;96.30;;;;;;5217033;27;20285;-70
2024/04/14 15:50:38;;;;;;;1.80;0.50;;;15.50;96.50;;;;;;5219716;27;20571;-70
2024/04/14 15:53:06;;;;;;;0.60;0.60;;;15.50;96.60;;;;;;5221361;27;20343;-71
2024/04/14 15:55:38;;;;;;;0.40;0.40;;;15.50;96.60;;;;;;5220333;27;20524;-71
2024/04/14 15:58:04;;;;;;;2.83;0.57;;;15.60;96.40;;;;;;5221506;27;20932;-70
2024/04/14 16:00:32;;;;;;;3.70;0.50;;;15.50;96.70;;;;;;5222742;27;20668;-70
2024/04/14 16:03:00;;;;;;;1.50;0.50;;;15.50;97.20;;;;;;5221662;27;20536;-70
2024/04/14 16:05:30;;;;;;;1.40;0.70;;;15.40;97.90;;;;;;5219341;27;20476;-70
2024/04/14 16:07:56;;;;;;;0.60;0.43;;;15.40;98.70;;;;;;5218536;27;20488;-70
2024/04/14 16:10:24;;;;;;;0.53;0.50;;;15.30;99.10;;;;;;5218764;27;21640;-70
2024/04/14 16:12:50;;;;;;;0.70;0.70;;;15.40;99.80;;;;;;5214522;27;21102;-70
2024/04/14 16:15:19;;;;;;;1.17;0.67;;;15.30;99.80;;;;;;5220253;27;20642;-70
2024/04/14 16:17:44;;;;;;;0.63;0.63;;;15.30;99.90;;;;;;5216482;27;20244;-71
2024/04/14 16:20:15;;;;;;;3.20;0.70;;;15.20;99.90;;;;;;5233488;27;21098;-70
2024/04/14 16:22:41;;;;;;;2.53;0.60;;;15.20;99.90;;;;;;5237784;27;20391;-70
2024/04/14 16:25:11;;;;;;;3.10;0.87;;;15.10;99.90;;;;;;5237419;27;20480;-71
2024/04/14 16:27:37;;;;;;;0.73;0.73;;;15.10;99.90;;;;;;5236386;27;20241;-70
2024/04/14 16:30:06;;;;;;;0.43;0.43;;;14.90;99.90;;;;;;5235643;27;20580;-70
2024/04/14 16:32:32;;;;;;;7.00;1.40;;;14.90;99.90;;;;;;5234737;27;20240;-71
2024/04/14 16:35:00;;;;;;;1.93;0.73;;;14.90;99.90;;;;;;5227159;27;21425;-70
2024/04/14 16:37:28;;;;;;;0.77;0.60;;;14.90;99.90;;;;;;5225471;27;21172;-70
2024/04/14 16:39:57;;;;;;;1.73;0.80;;;14.90;99.90;;;;;;5230951;27;20529;-71
2024/04/14 16:42:23;;;;;;;2.83;0.87;;;14.90;99.90;;;;;;5239220;27;20567;-71
2024/04/14 16:44:51;;;;;;;0.70;0.70;;;14.80;99.90;;;;;;5236123;27;20596;-70
2024/04/14 16:47:17;;;;;;;8.77;0.63;;;14.80;99.90;;;;;;5233674;27;20244;-71
2024/04/14 16:49:45;;;;;;;0.50;0.50;;;14.70;99.90;;;;;;5236343;27;20483;-70
2024/04/14 16:52:11;;;;;;;1.03;0.93;;;14.60;99.90;;;;;;5236206;27;20252;-71
2024/04/14 16:54:42;;;;;;;1.40;0.80;;;14.50;99.90;;;;;;5230963;27;20541;-71